createdAt,value
2023-01-29T00:02:11.399Z,30.20
2023-01-29T00:05:26.897Z,29.93
2023-01-29T00:08:30.150Z,29.63
2023-01-29T00:11:32.361Z,32.65
2023-01-29T00:14:35.054Z,32.00
2023-01-29T00:17:37.206Z,33.67
2023-01-29T00:20:39.365Z,33.65
2023-01-29T00:23:42.162Z,31.85
2023-01-29T00:26:44.529Z,29.02
2023-01-29T00:30:06.666Z,35.53
2023-01-29T00:33:08.961Z,33.88
2023-01-29T00:36:14.434Z,31.50
2023-01-29T00:39:16.577Z,32.28
2023-01-29T00:42:37.249Z,29.63
2023-01-29T00:45:39.737Z,31.00
2023-01-29T00:48:41.870Z,32.80
2023-01-29T00:52:05.166Z,32.22
2023-01-29T00:55:08.281Z,34.40
2023-01-29T00:58:10.442Z,32.25
2023-01-29T01:01:12.687Z,31.73
2023-01-29T01:04:14.866Z,28.83
2023-01-29T01:07:17.108Z,32.47
2023-01-29T01:10:28.731Z,32.80
2023-01-29T01:13:34.555Z,31.58
2023-01-29T01:16:37.113Z,31.97
2023-01-29T01:19:39.289Z,31.92
2023-01-29T01:22:41.649Z,32.90
2023-01-29T01:25:46.954Z,34.15
2023-01-29T01:29:12.104Z,28.55
2023-01-29T01:32:14.582Z,30.13
2023-01-29T01:35:16.969Z,32.20
2023-01-29T01:41:36.078Z,34.65
2023-01-29T01:45:05.497Z,31.42
2023-01-29T01:48:12.938Z,31.13
2023-01-29T01:51:16.585Z,29.95
2023-01-29T01:54:25.583Z,31.05
2023-01-29T01:57:29.534Z,29.58
2023-01-29T02:00:31.689Z,32.92
2023-01-29T02:04:00.267Z,32.15
2023-01-29T02:07:23.192Z,28.92
2023-01-29T02:10:26.247Z,32.10
2023-01-29T02:13:28.476Z,31.48
2023-01-29T02:16:30.800Z,33.40
2023-01-29T02:19:39.073Z,30.23
2023-01-29T02:23:03.844Z,30.73
2023-01-29T02:26:24.840Z,30.30
2023-01-29T02:29:37.681Z,32.20
2023-01-29T02:32:54.602Z,31.40
2023-01-29T02:36:16.734Z,34.03
2023-01-29T02:39:40.256Z,31.85
2023-01-29T02:42:57.081Z,30.23
2023-01-29T02:46:19.061Z,29.98
2023-01-29T02:49:38.036Z,29.35
2023-01-29T02:53:02.331Z,29.87
2023-01-29T02:56:18.605Z,32.17
2023-01-29T02:59:26.983Z,30.83
2023-01-29T03:02:33.868Z,30.00
2023-01-29T03:06:02.278Z,29.23
2023-01-29T03:09:09.544Z,33.15
2023-01-29T03:12:33.609Z,31.08
2023-01-29T03:15:51.292Z,30.47
2023-01-29T03:19:18.878Z,27.70
2023-01-29T03:22:23.236Z,33.60
2023-01-29T03:25:45.956Z,31.20
2023-01-29T03:29:06.973Z,28.92
2023-01-29T03:32:10.907Z,29.25
2023-01-29T03:35:20.906Z,27.73
2023-01-29T03:38:29.451Z,27.25
2023-01-29T03:41:47.601Z,31.60
2023-01-29T03:45:15.564Z,27.85
2023-01-29T03:48:55.927Z,27.57
2023-01-29T03:52:06.238Z,29.05
2023-01-29T03:55:13.085Z,27.70
2023-01-29T03:58:21.603Z,28.33
2023-01-29T04:01:31.849Z,32.40
2023-01-29T04:04:36.910Z,27.65
2023-01-29T04:07:42.143Z,29.10
2023-01-29T04:10:45.249Z,27.80
2023-01-29T04:13:47.924Z,29.45
2023-01-29T04:16:55.895Z,26.25
2023-01-29T04:20:13.905Z,27.87
2023-01-29T04:23:22.925Z,25.42
2023-01-29T04:26:40.917Z,25.42
2023-01-29T04:30:04.669Z,27.70
2023-01-29T04:33:36.128Z,26.27
2023-01-29T04:36:43.211Z,27.40
2023-01-29T04:40:00.259Z,26.02
2023-01-29T04:43:05.087Z,26.40
2023-01-29T04:46:13.221Z,25.55
2023-01-29T04:49:41.113Z,25.05
2023-01-29T04:52:57.385Z,24.33
2023-01-29T04:56:05.477Z,24.27
2023-01-29T04:59:12.191Z,23.20
2023-01-29T05:02:14.385Z,23.80
2023-01-29T05:05:18.371Z,22.45
2023-01-29T05:08:22.491Z,20.58
2023-01-29T05:11:25.196Z,19.85
2023-01-29T05:14:30.376Z,22.27
2023-01-29T05:17:32.578Z,21.17
2023-01-29T05:20:37.691Z,19.42
2023-01-29T05:23:39.845Z,21.87
2023-01-29T05:27:02.721Z,17.23
2023-01-29T05:30:05.662Z,19.67
2023-01-29T05:33:15.402Z,20.27
2023-01-29T05:36:17.569Z,20.85
2023-01-29T05:39:19.970Z,21.00
2023-01-29T05:42:22.306Z,21.17
2023-01-29T05:45:24.628Z,19.95
2023-01-29T05:48:28.936Z,20.20
2023-01-29T05:51:31.209Z,21.13
2023-01-29T05:54:33.287Z,20.17
2023-01-29T05:57:35.530Z,22.52
2023-01-29T06:00:40.769Z,18.73
2023-01-29T06:03:43.344Z,17.60
2023-01-29T06:06:45.454Z,19.08
2023-01-29T06:09:47.608Z,19.80
2023-01-29T06:12:49.787Z,21.25
2023-01-29T06:15:52.087Z,19.60
2023-01-29T06:18:54.347Z,18.00
2023-01-29T06:21:56.651Z,17.85
2023-01-29T06:24:58.877Z,19.30
2023-01-29T06:28:01.138Z,17.92
2023-01-29T06:31:23.790Z,18.15
2023-01-29T06:34:27.571Z,16.00
2023-01-29T06:37:29.787Z,18.30
2023-01-29T06:40:32.087Z,18.95
2023-01-29T06:43:34.279Z,18.70
2023-01-29T06:46:36.551Z,15.07
2023-01-29T06:49:38.719Z,18.17
2023-01-29T06:52:40.957Z,15.43
2023-01-29T06:55:43.247Z,15.80
2023-01-29T06:58:45.498Z,15.10
2023-01-29T07:01:47.898Z,16.98
2023-01-29T07:04:50.167Z,13.87
2023-01-29T07:07:52.345Z,16.30
2023-01-29T07:11:01.845Z,18.33
2023-01-29T07:14:04.283Z,16.95
2023-01-29T07:17:06.457Z,16.00
2023-01-29T07:20:09.202Z,14.60
2023-01-29T07:23:14.706Z,15.23
2023-01-29T07:26:16.927Z,15.23
2023-01-29T07:29:19.130Z,13.20
2023-01-29T07:32:21.306Z,15.40
2023-01-29T07:35:23.557Z,12.40
2023-01-29T07:38:25.873Z,15.35
2023-01-29T07:41:28.042Z,13.30
2023-01-29T07:44:30.205Z,14.50
2023-01-29T07:47:32.446Z,13.80
2023-01-29T07:50:35.132Z,13.13
2023-01-29T07:53:37.424Z,12.32
2023-01-29T07:56:39.617Z,13.80
2023-01-29T07:59:41.792Z,16.92
2023-01-29T08:02:43.955Z,14.70
2023-01-29T08:05:46.729Z,14.77
2023-01-29T08:08:48.899Z,14.60
2023-01-29T08:11:51.099Z,12.73
2023-01-29T08:14:53.216Z,14.63
2023-01-29T08:17:58.048Z,13.52
2023-01-29T08:21:17.838Z,14.48
2023-01-29T08:24:20.104Z,12.73
2023-01-29T08:27:22.329Z,12.63
2023-01-29T08:30:30.321Z,11.70
2023-01-29T08:33:39.176Z,14.93
2023-01-29T08:36:41.681Z,12.90
2023-01-29T08:39:43.845Z,13.07
2023-01-29T08:42:46.027Z,13.75
2023-01-29T08:45:48.242Z,14.68
2023-01-29T08:48:50.406Z,12.07
2023-01-29T08:51:53.777Z,11.90
2023-01-29T08:54:55.956Z,13.70
2023-01-29T08:57:58.172Z,13.47
2023-01-29T09:01:10.145Z,12.52
2023-01-29T09:04:12.304Z,12.02
2023-01-29T09:07:17.204Z,13.07
2023-01-29T09:10:19.472Z,11.52
2023-01-29T09:13:21.885Z,13.55
2023-01-29T09:16:24.041Z,11.85
2023-01-29T09:19:26.475Z,12.80
2023-01-29T09:22:28.636Z,10.15
2023-01-29T09:25:30.821Z,10.55
2023-01-29T09:28:33.042Z,11.93
2023-01-29T09:31:35.247Z,11.93
2023-01-29T09:34:37.441Z,10.43
2023-01-29T09:37:39.589Z,10.40
2023-01-29T09:40:46.667Z,11.27
2023-01-29T09:43:58.279Z,9.95
2023-01-29T09:47:04.175Z,9.52
2023-01-29T09:50:13.863Z,11.00
2023-01-29T09:53:34.789Z,9.18
2023-01-29T09:56:36.951Z,10.02
2023-01-29T09:59:39.146Z,9.60
2023-01-29T10:03:04.697Z,10.50
2023-01-29T10:06:32.375Z,12.65
2023-01-29T10:09:53.218Z,11.90
2023-01-29T10:13:08.012Z,11.75
2023-01-29T10:16:48.645Z,8.88
2023-01-29T10:20:27.768Z,10.35
2023-01-29T10:23:46.309Z,10.88
2023-01-29T10:26:49.333Z,11.48
2023-01-29T10:29:53.844Z,10.80
2023-01-29T10:32:59.116Z,12.13
2023-01-29T10:36:05.306Z,11.30
2023-01-29T10:39:22.400Z,9.32
2023-01-29T10:42:31.011Z,11.53
2023-01-29T10:45:54.410Z,11.18
2023-01-29T10:49:24.493Z,13.40
2023-01-29T10:52:57.015Z,13.55
2023-01-29T10:56:22.738Z,13.48
2023-01-29T10:59:56.669Z,11.95
2023-01-29T11:03:28.954Z,17.10
2023-01-29T11:06:33.775Z,11.40
2023-01-29T11:09:41.578Z,11.07
2023-01-29T11:12:44.079Z,12.00
2023-01-29T11:15:46.232Z,9.70
2023-01-29T11:18:59.626Z,9.75
2023-01-29T11:22:01.850Z,11.32
2023-01-29T11:25:20.362Z,10.88
2023-01-29T11:28:39.087Z,9.00
2023-01-29T11:31:41.334Z,8.75
2023-01-29T11:35:04.303Z,10.23
2023-01-29T11:38:19.804Z,9.80
2023-01-29T11:41:25.497Z,10.07
2023-01-29T11:44:38.702Z,10.25
2023-01-29T11:47:40.883Z,9.50
2023-01-29T11:50:43.517Z,9.05
2023-01-29T11:53:50.099Z,9.27
2023-01-29T11:56:52.286Z,7.78
2023-01-29T11:59:56.690Z,7.00
2023-01-29T12:03:12.772Z,8.65
2023-01-29T12:06:24.168Z,8.77
2023-01-29T12:09:28.293Z,9.97
2023-01-29T12:12:39.445Z,8.88
2023-01-29T12:15:42.600Z,8.70
2023-01-29T12:18:52.944Z,8.57
2023-01-29T12:21:59.557Z,9.55
2023-01-29T12:25:07.974Z,8.55
2023-01-29T12:28:42.399Z,11.27
2023-01-29T12:32:22.441Z,9.80
2023-01-29T12:35:41.382Z,9.80
2023-01-29T12:38:44.962Z,8.43
2023-01-29T12:41:54.010Z,9.63
2023-01-29T12:45:03.476Z,9.55
2023-01-29T12:48:11.329Z,8.73
2023-01-29T12:51:23.931Z,10.00
2023-01-29T12:54:51.578Z,7.45
2023-01-29T12:58:05.608Z,8.23
2023-01-29T13:01:23.436Z,8.13
2023-01-29T13:04:57.273Z,9.48
2023-01-29T13:08:10.013Z,8.05
2023-01-29T13:11:37.764Z,10.27
2023-01-29T13:15:03.205Z,10.20
2023-01-29T13:18:21.060Z,7.32
2023-01-29T13:21:35.453Z,7.55
2023-01-29T13:24:40.681Z,5.57
2023-01-29T13:27:47.822Z,6.70
2023-01-29T13:31:09.977Z,7.93
2023-01-29T13:34:16.888Z,8.15
2023-01-29T13:37:28.217Z,7.72
2023-01-29T13:40:31.921Z,8.25
2023-01-29T13:43:39.881Z,7.57
2023-01-29T13:46:42.231Z,6.33
2023-01-29T13:49:47.300Z,6.95
2023-01-29T13:52:56.388Z,6.05
2023-01-29T13:56:33.249Z,5.93
2023-01-29T13:59:53.828Z,6.45
2023-01-29T14:02:55.890Z,5.72
2023-01-29T14:06:01.909Z,7.25
2023-01-29T14:09:04.642Z,5.97
2023-01-29T14:12:22.148Z,6.97
2023-01-29T14:15:27.339Z,6.57
2023-01-29T14:18:30.709Z,5.87
2023-01-29T14:21:34.561Z,7.45
2023-01-29T14:24:36.851Z,8.05
2023-01-29T14:27:39.035Z,6.43
2023-01-29T14:30:47.171Z,6.90
2023-01-29T14:33:49.370Z,7.47
2023-01-29T14:36:58.100Z,6.70
2023-01-29T14:40:24.076Z,6.50
2023-01-29T14:43:26.204Z,5.50
2023-01-29T14:46:34.271Z,7.00
2023-01-29T14:49:56.354Z,7.77
2023-01-29T14:53:06.764Z,6.15
2023-01-29T14:56:11.912Z,7.20
2023-01-29T14:59:20.963Z,6.67
2023-01-29T15:02:32.768Z,7.38
2023-01-29T15:05:37.618Z,7.65
2023-01-29T15:08:44.307Z,6.78
2023-01-29T15:11:52.445Z,6.65
2023-01-29T15:15:16.715Z,7.63
2023-01-29T15:18:28.167Z,6.63
2023-01-29T15:21:30.316Z,6.70
2023-01-29T15:24:32.669Z,7.68
2023-01-29T15:27:35.155Z,8.40
2023-01-29T15:30:37.830Z,7.53
2023-01-29T15:33:43.143Z,7.72
2023-01-29T15:36:47.657Z,7.15
2023-01-29T15:39:52.209Z,7.95
2023-01-29T15:42:55.299Z,7.50
2023-01-29T15:46:03.373Z,8.10
2023-01-29T15:49:11.634Z,8.73
2023-01-29T15:52:27.094Z,7.27
2023-01-29T15:55:30.796Z,8.15
2023-01-29T15:58:33.109Z,7.95
2023-01-29T16:01:35.521Z,10.40
2023-01-29T16:04:37.782Z,8.05
2023-01-29T16:07:40.143Z,6.78
2023-01-29T16:10:42.697Z,8.93
2023-01-29T16:13:47.209Z,12.32
2023-01-29T16:16:49.476Z,8.48
2023-01-29T16:19:59.589Z,9.57
2023-01-29T16:23:02.044Z,9.17
2023-01-29T16:26:08.756Z,9.82
2023-01-29T16:29:22.797Z,9.63
2023-01-29T16:32:25.036Z,10.87
2023-01-29T16:35:27.294Z,7.28
2023-01-29T16:38:32.188Z,10.18
2023-01-29T16:41:38.576Z,10.52
2023-01-29T16:44:51.368Z,10.80
2023-01-29T16:48:32.326Z,10.65
2023-01-29T16:51:39.223Z,11.40
2023-01-29T16:54:44.571Z,10.70
2023-01-29T16:57:52.474Z,10.93
2023-01-29T17:01:01.301Z,9.52
2023-01-29T17:04:16.681Z,9.30
2023-01-29T17:07:22.017Z,9.60
2023-01-29T17:10:26.224Z,9.38
2023-01-29T17:13:42.925Z,7.40
2023-01-29T17:17:05.021Z,8.90
2023-01-29T17:20:15.577Z,10.70
2023-01-29T17:23:17.752Z,9.68
2023-01-29T17:26:20.536Z,11.87
2023-01-29T17:29:24.775Z,10.43
2023-01-29T17:32:43.908Z,11.50
2023-01-29T17:35:47.665Z,10.20
2023-01-29T17:38:49.884Z,10.65
2023-01-29T17:41:56.945Z,11.73
2023-01-29T17:45:00.563Z,9.32
2023-01-29T17:48:02.860Z,11.02
2023-01-29T17:51:05.399Z,11.73
2023-01-29T17:54:07.604Z,11.77
2023-01-29T17:57:12.327Z,12.63
2023-01-29T18:00:22.902Z,14.18
2023-01-29T18:03:26.607Z,12.55
2023-01-29T18:06:29.372Z,15.43
2023-01-29T18:09:31.601Z,15.50
2023-01-29T18:12:33.813Z,15.30
2023-01-29T18:15:36.000Z,14.70
2023-01-29T18:18:38.898Z,11.68
2023-01-29T18:21:41.138Z,11.93
2023-01-29T18:24:43.715Z,12.23
2023-01-29T18:27:46.203Z,12.07
2023-01-29T18:30:48.359Z,12.85
2023-01-29T18:33:50.533Z,11.18
2023-01-29T18:36:52.728Z,13.83
2023-01-29T18:39:55.498Z,13.07
2023-01-29T18:43:00.801Z,11.82
2023-01-29T18:46:03.446Z,12.57
2023-01-29T18:49:06.101Z,13.10
2023-01-29T18:52:08.355Z,11.07
2023-01-29T18:55:10.585Z,12.38
2023-01-29T18:58:29.008Z,14.70
2023-01-29T19:01:34.963Z,12.60
2023-01-29T19:04:37.203Z,10.98
2023-01-29T19:07:39.400Z,12.90
2023-01-29T19:10:41.753Z,11.90
2023-01-29T19:13:44.140Z,11.90
2023-01-29T19:16:46.593Z,14.50
2023-01-29T19:19:49.034Z,12.27
2023-01-29T19:22:51.615Z,12.45
2023-01-29T19:25:57.217Z,12.45
2023-01-29T19:29:00.810Z,10.70
2023-01-29T19:32:03.254Z,13.20
2023-01-29T19:35:06.084Z,13.02
2023-01-29T19:38:08.233Z,13.20
2023-01-29T19:41:10.411Z,10.55
2023-01-29T19:44:12.682Z,11.75
2023-01-29T19:47:17.177Z,12.43
2023-01-29T19:50:19.425Z,14.48
2023-01-29T19:53:22.852Z,10.57
2023-01-29T19:56:25.163Z,11.77
2023-01-29T19:59:27.379Z,13.33
2023-01-29T20:02:29.760Z,12.65
2023-01-29T20:05:35.640Z,13.63
2023-01-29T20:08:37.841Z,15.53
2023-01-29T20:11:40.067Z,12.60
2023-01-29T20:14:51.848Z,11.27
2023-01-29T20:17:54.036Z,13.82
2023-01-29T20:20:56.352Z,12.27
2023-01-29T20:23:58.618Z,13.40
2023-01-29T20:27:01.835Z,11.93
2023-01-29T20:30:04.417Z,12.50
2023-01-29T20:33:07.279Z,11.98
2023-01-29T20:36:10.872Z,12.20
2023-01-29T20:39:15.130Z,10.23
2023-01-29T20:42:17.345Z,11.70
2023-01-29T20:45:19.879Z,12.18
2023-01-29T20:48:22.240Z,11.60
2023-01-29T20:51:24.486Z,13.85
2023-01-29T20:54:26.933Z,10.20
2023-01-29T20:57:29.336Z,10.27
2023-01-29T21:00:31.613Z,11.27
2023-01-29T21:03:33.733Z,11.15
2023-01-29T21:06:35.891Z,13.07
2023-01-29T21:09:38.068Z,10.60
2023-01-29T21:12:40.277Z,11.38
2023-01-29T21:15:45.233Z,14.52
2023-01-29T21:18:47.541Z,11.18
2023-01-29T21:21:49.718Z,11.20
2023-01-29T21:24:52.120Z,11.20
2023-01-29T21:27:54.370Z,12.57
2023-01-29T21:31:11.504Z,11.87
2023-01-29T21:34:13.644Z,11.60
2023-01-29T21:37:15.793Z,10.45
2023-01-29T21:40:18.470Z,12.83
2023-01-29T21:43:20.786Z,13.85
2023-01-29T21:46:23.092Z,12.25
2023-01-29T21:49:25.364Z,12.82
2023-01-29T21:52:27.626Z,12.98
2023-01-29T21:55:29.995Z,11.38
2023-01-29T21:58:32.481Z,14.00
2023-01-29T22:01:37.899Z,13.33
2023-01-29T22:04:42.291Z,13.77
2023-01-29T22:07:44.496Z,12.65
2023-01-29T22:10:47.229Z,12.90
2023-01-29T22:13:49.496Z,12.77
2023-01-29T22:16:51.741Z,13.80
2023-01-29T22:19:53.853Z,12.68
2023-01-29T22:22:58.389Z,13.68
2023-01-29T22:26:05.131Z,11.85
2023-01-29T22:29:07.268Z,16.88
2023-01-29T22:32:10.362Z,11.30
2023-01-29T22:35:12.612Z,12.88
2023-01-29T22:38:14.732Z,14.35
2023-01-29T22:41:16.935Z,12.43
2023-01-29T22:44:19.036Z,13.43
2023-01-29T22:47:21.217Z,17.33
2023-01-29T22:50:23.407Z,14.82
2023-01-29T22:53:25.530Z,14.50
2023-01-29T22:56:29.531Z,14.68
2023-01-29T22:59:32.263Z,13.93
2023-01-29T23:02:34.467Z,13.60
2023-01-29T23:05:36.682Z,16.65
2023-01-29T23:08:38.935Z,13.32
2023-01-29T23:11:41.049Z,15.60
2023-01-29T23:14:43.356Z,13.88
2023-01-29T23:17:45.540Z,16.85
2023-01-29T23:20:47.902Z,13.98
2023-01-29T23:23:52.243Z,14.68
2023-01-29T23:27:13.083Z,14.45
2023-01-29T23:30:15.543Z,16.48
2023-01-29T23:33:18.043Z,14.33
2023-01-29T23:36:20.302Z,14.00
2023-01-29T23:39:22.422Z,12.52
2023-01-29T23:42:24.819Z,14.37
2023-01-29T23:45:26.929Z,15.48
2023-01-29T23:48:29.254Z,15.55
2023-01-29T23:51:31.573Z,14.38
2023-01-29T23:54:33.682Z,14.40
2023-01-29T23:57:35.857Z,13.13
